SNH weather

Stanthorpe Airport
Queensland, Australia

Public forecast

Using degrees Celsius for public forecast. Weather courtesy of forecast.io.

Closest aviation weather report (METAR) to Stanthorpe Airport

Closest report is Casino Airport, 58.8 nm (108.9 km) ESE. Retrieved 2019/10/16 19:00 UTC (18 minutes ago):

YCAS 161900Z AUTO 33005KT //// // ////// 21/18 Q1010

Closest aviation forecast (TAF) to Stanthorpe Airport

Closest forecast is RAAF Base Amberley, 70.1 nm (129.9 km) NNE. Retrieved 2019/10/16 18:00 UTC (1 hour ago):

TAF YAMB 161611Z 1618/1712 20006KT 9999 BKN025 FM162100 35012KT 9999 SCT030 FM170000 33015G28KT 9999 FEW040 FM170800 33013KT 9999 FEW040 PROB30 TEMPO 1705/1711 VRB20G45KT 3000 TSRA BKN020 SCT050CB